sensor_id;sensor_type;location;lat;lon;timestamp;temperature;humidity
52965;DHT22;42923;53.220;6.528;2023-02-28T00:00:50;4.80;99.90
52965;DHT22;42923;53.220;6.528;2023-02-28T00:03:15;4.80;99.90
52965;DHT22;42923;53.220;6.528;2023-02-28T00:05:41;4.80;99.90
52965;DHT22;42923;53.220;6.528;2023-02-28T00:08:07;4.90;99.90
52965;DHT22;42923;53.220;6.528;2023-02-28T00:10:34;4.80;99.90
52965;DHT22;42923;53.220;6.528;2023-02-28T00:13:03;4.80;99.90
52965;DHT22;42923;53.220;6.528;2023-02-28T00:15:29;4.80;99.90
52965;DHT22;42923;53.220;6.528;2023-02-28T00:17:55;4.80;99.90
52965;DHT22;42923;53.220;6.528;2023-02-28T00:20:21;4.70;99.90
52965;DHT22;42923;53.220;6.528;2023-02-28T00:22:49;4.70;99.90
52965;DHT22;42923;53.220;6.528;2023-02-28T00:25:18;4.70;99.90
52965;DHT22;42923;53.220;6.528;2023-02-28T00:27:45;4.60;99.90
52965;DHT22;42923;53.220;6.528;2023-02-28T00:30:14;4.60;99.90
52965;DHT22;42923;53.220;6.528;2023-02-28T00:32:40;4.60;99.90
52965;DHT22;42923;53.220;6.528;2023-02-28T00:35:07;4.60;99.90
52965;DHT22;42923;53.220;6.528;2023-02-28T00:37:33;4.60;99.90
52965;DHT22;42923;53.220;6.528;2023-02-28T00:39:59;4.50;99.90
52965;DHT22;42923;53.220;6.528;2023-02-28T00:42:26;4.50;99.90
52965;DHT22;42923;53.220;6.528;2023-02-28T00:44:52;4.50;99.90
52965;DHT22;42923;53.220;6.528;2023-02-28T00:47:17;4.50;99.90
52965;DHT22;42923;53.220;6.528;2023-02-28T00:49:43;4.40;99.90
52965;DHT22;42923;53.220;6.528;2023-02-28T00:52:09;4.40;99.90
52965;DHT22;42923;53.220;6.528;2023-02-28T00:54:35;4.40;99.90
52965;DHT22;42923;53.220;6.528;2023-02-28T00:57:01;4.40;99.90
52965;DHT22;42923;53.220;6.528;2023-02-28T00:59:27;4.50;99.90
52965;DHT22;42923;53.220;6.528;2023-02-28T01:01:52;4.50;99.90
52965;DHT22;42923;53.220;6.528;2023-02-28T01:04:18;4.50;99.90
52965;DHT22;42923;53.220;6.528;2023-02-28T01:06:44;4.50;99.90
52965;DHT22;42923;53.220;6.528;2023-02-28T01:09:10;4.50;99.90
52965;DHT22;42923;53.220;6.528;2023-02-28T01:11:36;4.50;99.90
52965;DHT22;42923;53.220;6.528;2023-02-28T01:14:03;4.50;99.90
52965;DHT22;42923;53.220;6.528;2023-02-28T01:16:29;4.60;99.90
52965;DHT22;42923;53.220;6.528;2023-02-28T01:18:55;4.40;99.90
52965;DHT22;42923;53.220;6.528;2023-02-28T01:21:21;4.40;99.90
52965;DHT22;42923;53.220;6.528;2023-02-28T01:23:48;4.40;99.90
52965;DHT22;42923;53.220;6.528;2023-02-28T01:26:24;4.50;99.90
52965;DHT22;42923;53.220;6.528;2023-02-28T01:28:50;4.50;99.90
52965;DHT22;42923;53.220;6.528;2023-02-28T01:31:18;4.50;99.90
52965;DHT22;42923;53.220;6.528;2023-02-28T01:33:45;4.50;99.90
52965;DHT22;42923;53.220;6.528;2023-02-28T01:38:38;4.40;99.90
52965;DHT22;42923;53.220;6.528;2023-02-28T01:41:05;4.40;99.90
52965;DHT22;42923;53.220;6.528;2023-02-28T01:43:53;4.40;99.90
52965;DHT22;42923;53.220;6.528;2023-02-28T01:46:19;4.50;99.90
52965;DHT22;42923;53.220;6.528;2023-02-28T01:51:22;4.50;99.90
52965;DHT22;42923;53.220;6.528;2023-02-28T01:53:52;4.50;99.90
52965;DHT22;42923;53.220;6.528;2023-02-28T01:56:22;4.50;99.90
52965;DHT22;42923;53.220;6.528;2023-02-28T01:58:54;4.50;99.90
52965;DHT22;42923;53.220;6.528;2023-02-28T02:01:22;4.50;99.90
52965;DHT22;42923;53.220;6.528;2023-02-28T02:03:51;4.50;99.90
52965;DHT22;42923;53.220;6.528;2023-02-28T02:06:27;4.90;99.90
52965;DHT22;42923;53.220;6.528;2023-02-28T02:08:54;4.50;99.90
52965;DHT22;42923;53.220;6.528;2023-02-28T02:11:22;4.50;99.90
52965;DHT22;42923;53.220;6.528;2023-02-28T02:19:28;4.50;99.90
52965;DHT22;42923;53.220;6.528;2023-02-28T02:25:11;4.50;99.90
52965;DHT22;42923;53.220;6.528;2023-02-28T02:33:28;4.50;99.90
52965;DHT22;42923;53.220;6.528;2023-02-28T02:36:27;4.50;99.90
52965;DHT22;42923;53.220;6.528;2023-02-28T02:39:12;4.50;99.90
52965;DHT22;42923;53.220;6.528;2023-02-28T02:41:52;4.50;99.90
52965;DHT22;42923;53.220;6.528;2023-02-28T02:44:24;4.50;99.90
52965;DHT22;42923;53.220;6.528;2023-02-28T02:46:57;4.50;99.90
52965;DHT22;42923;53.220;6.528;2023-02-28T02:49:31;4.50;99.90
52965;DHT22;42923;53.220;6.528;2023-02-28T02:52:02;4.50;99.90
52965;DHT22;42923;53.220;6.528;2023-02-28T02:54:31;4.50;99.90
52965;DHT22;42923;53.220;6.528;2023-02-28T02:57:00;4.50;99.90
52965;DHT22;42923;53.220;6.528;2023-02-28T02:59:28;4.50;99.90
52965;DHT22;42923;53.220;6.528;2023-02-28T03:02:06;4.50;99.90
52965;DHT22;42923;53.220;6.528;2023-02-28T03:04:46;4.50;99.90
52965;DHT22;42923;53.220;6.528;2023-02-28T03:07:14;4.60;99.90
52965;DHT22;42923;53.220;6.528;2023-02-28T03:09:40;4.50;99.90
52965;DHT22;42923;53.220;6.528;2023-02-28T03:12:10;4.50;99.90
52965;DHT22;42923;53.220;6.528;2023-02-28T03:14:52;4.60;99.90
52965;DHT22;42923;53.220;6.528;2023-02-28T03:25:45;4.60;99.90
52965;DHT22;42923;53.220;6.528;2023-02-28T03:33:31;4.40;99.90
52965;DHT22;42923;53.220;6.528;2023-02-28T03:38:36;4.30;99.90
52965;DHT22;42923;53.220;6.528;2023-02-28T03:41:22;4.30;99.90
52965;DHT22;42923;53.220;6.528;2023-02-28T03:43:58;4.30;99.90
52965;DHT22;42923;53.220;6.528;2023-02-28T03:46:28;4.20;99.90
52965;DHT22;42923;53.220;6.528;2023-02-28T03:49:27;4.20;99.90
52965;DHT22;42923;53.220;6.528;2023-02-28T03:51:55;4.20;99.90
52965;DHT22;42923;53.220;6.528;2023-02-28T03:54:30;4.10;99.90
52965;DHT22;42923;53.220;6.528;2023-02-28T03:57:05;4.10;99.90
52965;DHT22;42923;53.220;6.528;2023-02-28T04:02:02;4.00;99.90
52965;DHT22;42923;53.220;6.528;2023-02-28T04:04:28;3.90;99.90
52965;DHT22;42923;53.220;6.528;2023-02-28T04:07:05;3.90;99.90
52965;DHT22;42923;53.220;6.528;2023-02-28T04:09:32;3.70;99.90
52965;DHT22;42923;53.220;6.528;2023-02-28T04:11:58;3.60;99.90
52965;DHT22;42923;53.220;6.528;2023-02-28T04:14:24;3.60;99.90
52965;DHT22;42923;53.220;6.528;2023-02-28T04:16:50;3.60;99.90
52965;DHT22;42923;53.220;6.528;2023-02-28T04:19:16;3.70;99.90
52965;DHT22;42923;53.220;6.528;2023-02-28T04:21:48;3.50;99.90
52965;DHT22;42923;53.220;6.528;2023-02-28T04:24:16;3.50;99.90
52965;DHT22;42923;53.220;6.528;2023-02-28T04:26:44;3.50;99.90
52965;DHT22;42923;53.220;6.528;2023-02-28T04:29:12;3.50;99.90
52965;DHT22;42923;53.220;6.528;2023-02-28T04:31:39;3.50;99.90
52965;DHT22;42923;53.220;6.528;2023-02-28T04:34:05;3.50;99.90
52965;DHT22;42923;53.220;6.528;2023-02-28T04:36:31;3.40;99.90
52965;DHT22;42923;53.220;6.528;2023-02-28T04:38:57;3.40;99.90
52965;DHT22;42923;53.220;6.528;2023-02-28T04:41:23;3.40;99.90
52965;DHT22;42923;53.220;6.528;2023-02-28T04:43:50;3.40;99.90
52965;DHT22;42923;53.220;6.528;2023-02-28T04:46:16;3.40;99.90
52965;DHT22;42923;53.220;6.528;2023-02-28T04:48:44;3.30;99.90
52965;DHT22;42923;53.220;6.528;2023-02-28T04:51:12;3.30;99.90
52965;DHT22;42923;53.220;6.528;2023-02-28T04:53:40;3.30;99.90
52965;DHT22;42923;53.220;6.528;2023-02-28T04:56:07;3.30;99.90
52965;DHT22;42923;53.220;6.528;2023-02-28T04:58:33;3.20;99.90
52965;DHT22;42923;53.220;6.528;2023-02-28T05:01:18;3.20;99.90
52965;DHT22;42923;53.220;6.528;2023-02-28T05:03:44;3.20;99.90
52965;DHT22;42923;53.220;6.528;2023-02-28T05:06:10;3.20;99.90
52965;DHT22;42923;53.220;6.528;2023-02-28T05:08:37;3.20;99.90
52965;DHT22;42923;53.220;6.528;2023-02-28T05:11:03;3.10;99.90
52965;DHT22;42923;53.220;6.528;2023-02-28T05:13:29;3.10;99.90
52965;DHT22;42923;53.220;6.528;2023-02-28T05:15:55;3.00;99.90
52965;DHT22;42923;53.220;6.528;2023-02-28T05:18:21;3.00;99.90
52965;DHT22;42923;53.220;6.528;2023-02-28T05:20:47;2.90;99.90
52965;DHT22;42923;53.220;6.528;2023-02-28T05:23:13;2.90;99.90
52965;DHT22;42923;53.220;6.528;2023-02-28T05:25:40;2.90;99.90
52965;DHT22;42923;53.220;6.528;2023-02-28T05:28:06;2.80;99.90
52965;DHT22;42923;53.220;6.528;2023-02-28T05:30:32;2.80;99.90
52965;DHT22;42923;53.220;6.528;2023-02-28T05:32:58;2.80;99.90
52965;DHT22;42923;53.220;6.528;2023-02-28T05:35:24;2.70;99.90
52965;DHT22;42923;53.220;6.528;2023-02-28T05:37:50;2.70;99.90
52965;DHT22;42923;53.220;6.528;2023-02-28T05:40:17;2.70;99.90
52965;DHT22;42923;53.220;6.528;2023-02-28T05:42:42;2.70;99.90
52965;DHT22;42923;53.220;6.528;2023-02-28T05:45:09;2.70;99.90
52965;DHT22;42923;53.220;6.528;2023-02-28T05:47:35;2.60;99.90
52965;DHT22;42923;53.220;6.528;2023-02-28T05:50:01;2.60;99.90
52965;DHT22;42923;53.220;6.528;2023-02-28T05:52:28;2.70;99.90
52965;DHT22;42923;53.220;6.528;2023-02-28T05:54:55;2.70;99.90
52965;DHT22;42923;53.220;6.528;2023-02-28T05:57:22;2.70;99.90
52965;DHT22;42923;53.220;6.528;2023-02-28T05:59:48;2.70;99.90
52965;DHT22;42923;53.220;6.528;2023-02-28T06:02:15;2.70;99.90
52965;DHT22;42923;53.220;6.528;2023-02-28T06:04:41;2.70;99.90
52965;DHT22;42923;53.220;6.528;2023-02-28T06:07:07;2.70;99.90
52965;DHT22;42923;53.220;6.528;2023-02-28T06:09:33;2.70;99.90
52965;DHT22;42923;53.220;6.528;2023-02-28T06:12:00;2.70;99.90
52965;DHT22;42923;53.220;6.528;2023-02-28T06:14:28;2.70;99.90
52965;DHT22;42923;53.220;6.528;2023-02-28T06:16:54;2.60;99.90
52965;DHT22;42923;53.220;6.528;2023-02-28T06:19:19;2.60;99.90
52965;DHT22;42923;53.220;6.528;2023-02-28T06:21:49;2.60;99.90
52965;DHT22;42923;53.220;6.528;2023-02-28T06:24:15;3.00;99.90
52965;DHT22;42923;53.220;6.528;2023-02-28T06:26:40;2.60;99.90
52965;DHT22;42923;53.220;6.528;2023-02-28T06:29:06;2.60;99.90
52965;DHT22;42923;53.220;6.528;2023-02-28T06:31:32;2.60;99.90
52965;DHT22;42923;53.220;6.528;2023-02-28T06:33:58;2.60;99.90
52965;DHT22;42923;53.220;6.528;2023-02-28T06:36:24;2.60;99.90
52965;DHT22;42923;53.220;6.528;2023-02-28T06:38:49;2.60;99.90
52965;DHT22;42923;53.220;6.528;2023-02-28T06:41:23;2.60;99.90
52965;DHT22;42923;53.220;6.528;2023-02-28T06:43:49;2.60;99.90
52965;DHT22;42923;53.220;6.528;2023-02-28T06:46:15;2.60;99.90
52965;DHT22;42923;53.220;6.528;2023-02-28T06:48:43;2.50;99.90
52965;DHT22;42923;53.220;6.528;2023-02-28T06:51:12;2.50;99.90
52965;DHT22;42923;53.220;6.528;2023-02-28T06:53:40;2.50;99.90
52965;DHT22;42923;53.220;6.528;2023-02-28T06:56:08;2.60;99.90
52965;DHT22;42923;53.220;6.528;2023-02-28T06:58:34;2.40;99.90
52965;DHT22;42923;53.220;6.528;2023-02-28T07:01:00;2.40;99.90
52965;DHT22;42923;53.220;6.528;2023-02-28T07:03:26;2.40;99.90
52965;DHT22;42923;53.220;6.528;2023-02-28T07:05:52;2.30;99.90
52965;DHT22;42923;53.220;6.528;2023-02-28T07:08:18;2.30;99.90
52965;DHT22;42923;53.220;6.528;2023-02-28T07:10:44;2.30;99.90
52965;DHT22;42923;53.220;6.528;2023-02-28T07:13:10;2.30;99.90
52965;DHT22;42923;53.220;6.528;2023-02-28T07:15:36;2.20;99.90
52965;DHT22;42923;53.220;6.528;2023-02-28T07:18:02;2.20;99.90
52965;DHT22;42923;53.220;6.528;2023-02-28T07:20:29;2.60;99.90
52965;DHT22;42923;53.220;6.528;2023-02-28T07:22:54;2.20;99.90
52965;DHT22;42923;53.220;6.528;2023-02-28T07:25:24;2.20;99.90
52965;DHT22;42923;53.220;6.528;2023-02-28T07:27:50;2.70;99.90
52965;DHT22;42923;53.220;6.528;2023-02-28T07:30:16;2.20;99.90
52965;DHT22;42923;53.220;6.528;2023-02-28T07:32:42;2.20;99.90
52965;DHT22;42923;53.220;6.528;2023-02-28T07:35:08;2.30;99.90
52965;DHT22;42923;53.220;6.528;2023-02-28T07:37:34;2.30;99.90
52965;DHT22;42923;53.220;6.528;2023-02-28T07:40:04;2.30;99.90
52965;DHT22;42923;53.220;6.528;2023-02-28T07:42:37;2.30;99.90
52965;DHT22;42923;53.220;6.528;2023-02-28T07:45:04;2.30;99.90
52965;DHT22;42923;53.220;6.528;2023-02-28T07:47:31;2.40;99.90
52965;DHT22;42923;53.220;6.528;2023-02-28T07:49:57;2.40;99.90
52965;DHT22;42923;53.220;6.528;2023-02-28T07:52:23;2.40;99.90
52965;DHT22;42923;53.220;6.528;2023-02-28T07:54:50;2.40;99.90
52965;DHT22;42923;53.220;6.528;2023-02-28T07:57:16;2.50;99.90
52965;DHT22;42923;53.220;6.528;2023-02-28T07:59:42;2.60;99.90
52965;DHT22;42923;53.220;6.528;2023-02-28T08:02:13;2.60;99.90
52965;DHT22;42923;53.220;6.528;2023-02-28T08:04:40;2.70;99.90
52965;DHT22;42923;53.220;6.528;2023-02-28T08:07:05;2.70;99.90
52965;DHT22;42923;53.220;6.528;2023-02-28T08:09:31;2.70;99.90
52965;DHT22;42923;53.220;6.528;2023-02-28T08:11:57;2.80;99.90
52965;DHT22;42923;53.220;6.528;2023-02-28T08:14:23;2.80;99.90
52965;DHT22;42923;53.220;6.528;2023-02-28T08:16:48;2.90;99.90
52965;DHT22;42923;53.220;6.528;2023-02-28T08:19:14;2.90;99.90
52965;DHT22;42923;53.220;6.528;2023-02-28T08:21:40;2.90;99.90
52965;DHT22;42923;53.220;6.528;2023-02-28T08:24:06;3.20;99.90
52965;DHT22;42923;53.220;6.528;2023-02-28T08:26:32;3.00;99.90
52965;DHT22;42923;53.220;6.528;2023-02-28T08:28:58;3.10;99.90
52965;DHT22;42923;53.220;6.528;2023-02-28T08:31:24;3.20;99.90
52965;DHT22;42923;53.220;6.528;2023-02-28T08:33:49;3.30;99.90
52965;DHT22;42923;53.220;6.528;2023-02-28T08:36:17;3.30;99.90
52965;DHT22;42923;53.220;6.528;2023-02-28T08:38:43;3.40;99.90
52965;DHT22;42923;53.220;6.528;2023-02-28T08:41:11;3.50;99.90
52965;DHT22;42923;53.220;6.528;2023-02-28T08:43:37;3.60;99.90
52965;DHT22;42923;53.220;6.528;2023-02-28T08:46:03;3.70;99.90
52965;DHT22;42923;53.220;6.528;2023-02-28T08:48:31;3.70;99.90
52965;DHT22;42923;53.220;6.528;2023-02-28T08:51:03;3.70;99.90
52965;DHT22;42923;53.220;6.528;2023-02-28T08:53:28;3.70;99.90
52965;DHT22;42923;53.220;6.528;2023-02-28T08:55:59;3.80;99.90
52965;DHT22;42923;53.220;6.528;2023-02-28T08:58:26;3.90;99.90
52965;DHT22;42923;53.220;6.528;2023-02-28T09:00:52;4.00;99.90
52965;DHT22;42923;53.220;6.528;2023-02-28T09:03:18;4.00;99.90
52965;DHT22;42923;53.220;6.528;2023-02-28T09:05:58;4.10;99.90
52965;DHT22;42923;53.220;6.528;2023-02-28T09:08:25;4.30;99.90
52965;DHT22;42923;53.220;6.528;2023-02-28T09:10:51;4.30;99.90
52965;DHT22;42923;53.220;6.528;2023-02-28T09:13:18;4.30;99.90
52965;DHT22;42923;53.220;6.528;2023-02-28T09:15:44;4.40;99.90
52965;DHT22;42923;53.220;6.528;2023-02-28T09:18:10;4.40;99.90
52965;DHT22;42923;53.220;6.528;2023-02-28T09:20:40;4.40;99.90
52965;DHT22;42923;53.220;6.528;2023-02-28T09:23:07;4.30;99.90
52965;DHT22;42923;53.220;6.528;2023-02-28T09:25:33;4.50;99.90
52965;DHT22;42923;53.220;6.528;2023-02-28T09:27:58;4.60;99.90
52965;DHT22;42923;53.220;6.528;2023-02-28T09:30:24;4.80;99.90
52965;DHT22;42923;53.220;6.528;2023-02-28T09:32:50;5.10;99.90
52965;DHT22;42923;53.220;6.528;2023-02-28T09:35:23;5.30;99.90
52965;DHT22;42923;53.220;6.528;2023-02-28T09:37:50;5.40;99.90
52965;DHT22;42923;53.220;6.528;2023-02-28T09:40:19;5.50;99.90
52965;DHT22;42923;53.220;6.528;2023-02-28T09:42:47;5.60;99.90
52965;DHT22;42923;53.220;6.528;2023-02-28T09:45:24;5.70;99.90
52965;DHT22;42923;53.220;6.528;2023-02-28T09:47:52;5.80;99.90
52965;DHT22;42923;53.220;6.528;2023-02-28T09:52:53;6.20;99.90
52965;DHT22;42923;53.220;6.528;2023-02-28T09:55:32;6.50;99.90
52965;DHT22;42923;53.220;6.528;2023-02-28T09:58:00;6.40;99.90
52965;DHT22;42923;53.220;6.528;2023-02-28T10:00:40;6.70;99.90
52965;DHT22;42923;53.220;6.528;2023-02-28T10:03:25;7.00;99.90
52965;DHT22;42923;53.220;6.528;2023-02-28T10:06:16;7.50;99.90
52965;DHT22;42923;53.220;6.528;2023-02-28T10:11:27;8.40;99.90
52965;DHT22;42923;53.220;6.528;2023-02-28T10:14:02;8.80;99.90
52965;DHT22;42923;53.220;6.528;2023-02-28T10:24:44;10.80;99.90
52965;DHT22;42923;53.220;6.528;2023-02-28T10:27:31;10.70;99.90
52965;DHT22;42923;53.220;6.528;2023-02-28T10:29:58;10.80;99.90
52965;DHT22;42923;53.220;6.528;2023-02-28T10:32:34;11.00;99.90
52965;DHT22;42923;53.220;6.528;2023-02-28T10:37:42;11.70;99.90
52965;DHT22;42923;53.220;6.528;2023-02-28T10:40:33;11.90;99.90
52965;DHT22;42923;53.220;6.528;2023-02-28T10:43:03;11.90;99.90
52965;DHT22;42923;53.220;6.528;2023-02-28T10:45:31;11.90;99.90
52965;DHT22;42923;53.220;6.528;2023-02-28T10:48:47;11.90;99.90
52965;DHT22;42923;53.220;6.528;2023-02-28T10:59:03;11.80;99.90
52965;DHT22;42923;53.220;6.528;2023-02-28T11:01:39;12.00;99.90
52965;DHT22;42923;53.220;6.528;2023-02-28T11:04:34;12.30;99.90
52965;DHT22;42923;53.220;6.528;2023-02-28T11:07:16;12.40;99.90
52965;DHT22;42923;53.220;6.528;2023-02-28T11:09:46;12.50;99.90
52965;DHT22;42923;53.220;6.528;2023-02-28T11:12:33;12.60;99.90
52965;DHT22;42923;53.220;6.528;2023-02-28T11:15:05;12.80;99.90
52965;DHT22;42923;53.220;6.528;2023-02-28T11:17:32;13.00;99.90
52965;DHT22;42923;53.220;6.528;2023-02-28T11:20:03;13.20;99.90
52965;DHT22;42923;53.220;6.528;2023-02-28T11:22:32;13.40;99.90
52965;DHT22;42923;53.220;6.528;2023-02-28T11:25:06;13.80;99.90
52965;DHT22;42923;53.220;6.528;2023-02-28T11:30:00;14.30;99.90
52965;DHT22;42923;53.220;6.528;2023-02-28T11:32:30;14.30;99.90
52965;DHT22;42923;53.220;6.528;2023-02-28T11:37:28;13.90;91.80
52965;DHT22;42923;53.220;6.528;2023-02-28T11:39:54;13.80;94.80
52965;DHT22;42923;53.220;6.528;2023-02-28T11:42:36;14.00;92.60
52965;DHT22;42923;53.220;6.528;2023-02-28T11:48:23;14.40;94.20
52965;DHT22;42923;53.220;6.528;2023-02-28T11:56:27;14.90;90.70
52965;DHT22;42923;53.220;6.528;2023-02-28T11:59:13;14.90;90.70
52965;DHT22;42923;53.220;6.528;2023-02-28T12:10:06;15.80;82.20
52965;DHT22;42923;53.220;6.528;2023-02-28T12:15:38;15.70;82.40
52965;DHT22;42923;53.220;6.528;2023-02-28T12:20:53;15.60;79.40
52965;DHT22;42923;53.220;6.528;2023-02-28T12:23:40;15.00;80.40
52965;DHT22;42923;53.220;6.528;2023-02-28T12:26:39;14.20;81.80
52965;DHT22;42923;53.220;6.528;2023-02-28T12:31:49;13.50;87.70
52965;DHT22;42923;53.220;6.528;2023-02-28T12:34:21;14.20;87.80
52965;DHT22;42923;53.220;6.528;2023-02-28T12:36:49;14.90;83.00
52965;DHT22;42923;53.220;6.528;2023-02-28T12:39:23;14.80;79.10
52965;DHT22;42923;53.220;6.528;2023-02-28T12:42:10;14.20;81.00
52965;DHT22;42923;53.220;6.528;2023-02-28T12:44:59;14.00;82.30
52965;DHT22;42923;53.220;6.528;2023-02-28T12:47:26;14.50;81.10
52965;DHT22;42923;53.220;6.528;2023-02-28T12:50:11;14.70;80.30
52965;DHT22;42923;53.220;6.528;2023-02-28T12:52:47;14.90;82.60
52965;DHT22;42923;53.220;6.528;2023-02-28T13:09:31;16.60;80.20
52965;DHT22;42923;53.220;6.528;2023-02-28T13:11:58;16.80;78.60
52965;DHT22;42923;53.220;6.528;2023-02-28T13:14:27;16.80;77.70
52965;DHT22;42923;53.220;6.528;2023-02-28T13:16:59;16.90;77.00
52965;DHT22;42923;53.220;6.528;2023-02-28T13:19:28;16.50;76.40
52965;DHT22;42923;53.220;6.528;2023-02-28T13:21:57;16.10;78.10
52965;DHT22;42923;53.220;6.528;2023-02-28T13:24:58;15.90;77.70
52965;DHT22;42923;53.220;6.528;2023-02-28T13:27:33;15.00;75.80
52965;DHT22;42923;53.220;6.528;2023-02-28T13:30:00;14.60;77.00
52965;DHT22;42923;53.220;6.528;2023-02-28T13:32:34;14.50;78.00
52965;DHT22;42923;53.220;6.528;2023-02-28T13:37:35;15.20;76.50
52965;DHT22;42923;53.220;6.528;2023-02-28T13:42:36;16.30;72.90
52965;DHT22;42923;53.220;6.528;2023-02-28T13:47:35;17.20;72.80
52965;DHT22;42923;53.220;6.528;2023-02-28T13:52:53;17.50;70.30
52965;DHT22;42923;53.220;6.528;2023-02-28T13:55:34;17.20;70.20
52965;DHT22;42923;53.220;6.528;2023-02-28T13:58:19;17.40;70.40
52965;DHT22;42923;53.220;6.528;2023-02-28T14:04:40;17.30;68.20
52965;DHT22;42923;53.220;6.528;2023-02-28T14:06:59;16.40;68.00
52965;DHT22;42923;53.220;6.528;2023-02-28T14:09:29;15.80;68.90
52965;DHT22;42923;53.220;6.528;2023-02-28T14:11:57;15.10;68.90
52965;DHT22;42923;53.220;6.528;2023-02-28T14:17:23;13.30;68.90
52965;DHT22;42923;53.220;6.528;2023-02-28T14:19:48;12.80;72.40
52965;DHT22;42923;53.220;6.528;2023-02-28T14:25:22;13.10;70.90
52965;DHT22;42923;53.220;6.528;2023-02-28T14:28:02;13.10;71.70
52965;DHT22;42923;53.220;6.528;2023-02-28T14:33:35;13.40;72.20
52965;DHT22;42923;53.220;6.528;2023-02-28T14:38:27;14.30;71.00
52965;DHT22;42923;53.220;6.528;2023-02-28T14:40:57;14.40;70.70
52965;DHT22;42923;53.220;6.528;2023-02-28T14:43:28;14.30;70.20
52965;DHT22;42923;53.220;6.528;2023-02-28T14:45:59;13.70;70.50
52965;DHT22;42923;53.220;6.528;2023-02-28T14:48:26;13.00;71.60
52965;DHT22;42923;53.220;6.528;2023-02-28T14:50:56;12.10;73.00
52965;DHT22;42923;53.220;6.528;2023-02-28T14:53:27;11.50;74.20
52965;DHT22;42923;53.220;6.528;2023-02-28T14:55:53;10.90;75.10
52965;DHT22;42923;53.220;6.528;2023-02-28T15:00:55;10.00;75.80
52965;DHT22;42923;53.220;6.528;2023-02-28T15:06:15;9.20;75.50
52965;DHT22;42923;53.220;6.528;2023-02-28T15:08:44;8.90;75.80
52965;DHT22;42923;53.220;6.528;2023-02-28T15:11:15;8.70;77.00
52965;DHT22;42923;53.220;6.528;2023-02-28T15:13:44;8.50;76.90
52965;DHT22;42923;53.220;6.528;2023-02-28T15:16:28;8.40;77.30
52965;DHT22;42923;53.220;6.528;2023-02-28T15:18:57;8.30;77.80
52965;DHT22;42923;53.220;6.528;2023-02-28T15:21:28;8.30;78.60
52965;DHT22;42923;53.220;6.528;2023-02-28T15:23:57;8.30;80.10
52965;DHT22;42923;53.220;6.528;2023-02-28T15:26:27;8.20;80.70
52965;DHT22;42923;53.220;6.528;2023-02-28T15:29:15;8.10;81.20
52965;DHT22;42923;53.220;6.528;2023-02-28T15:31:49;7.90;81.30
52965;DHT22;42923;53.220;6.528;2023-02-28T15:34:20;7.80;82.20
52965;DHT22;42923;53.220;6.528;2023-02-28T15:36:47;7.70;82.40
52965;DHT22;42923;53.220;6.528;2023-02-28T15:39:22;7.70;82.50
52965;DHT22;42923;53.220;6.528;2023-02-28T15:41:48;7.60;82.50
52965;DHT22;42923;53.220;6.528;2023-02-28T15:44:26;7.50;82.70
52965;DHT22;42923;53.220;6.528;2023-02-28T15:47:06;7.40;82.50
52965;DHT22;42923;53.220;6.528;2023-02-28T15:49:45;7.30;83.00
52965;DHT22;42923;53.220;6.528;2023-02-28T15:52:22;7.20;83.00
52965;DHT22;42923;53.220;6.528;2023-02-28T15:54:50;7.10;83.50
52965;DHT22;42923;53.220;6.528;2023-02-28T15:57:20;7.10;84.30
52965;DHT22;42923;53.220;6.528;2023-02-28T15:59:54;7.00;84.70
52965;DHT22;42923;53.220;6.528;2023-02-28T16:02:36;7.10;85.40
52965;DHT22;42923;53.220;6.528;2023-02-28T16:07:41;6.80;86.70
52965;DHT22;42923;53.220;6.528;2023-02-28T16:10:10;6.60;88.50
52965;DHT22;42923;53.220;6.528;2023-02-28T16:12:38;6.60;88.90
52965;DHT22;42923;53.220;6.528;2023-02-28T16:15:28;6.50;90.10
52965;DHT22;42923;53.220;6.528;2023-02-28T16:17:55;6.50;90.70
52965;DHT22;42923;53.220;6.528;2023-02-28T16:22:49;6.30;93.60
52965;DHT22;42923;53.220;6.528;2023-02-28T16:25:25;6.20;94.90
52965;DHT22;42923;53.220;6.528;2023-02-28T16:27:52;6.10;96.70
52965;DHT22;42923;53.220;6.528;2023-02-28T16:30:22;6.00;98.10
52965;DHT22;42923;53.220;6.528;2023-02-28T16:32:49;6.00;99.30
52965;DHT22;42923;53.220;6.528;2023-02-28T16:35:16;6.00;99.90
52965;DHT22;42923;53.220;6.528;2023-02-28T16:37:43;5.90;99.90
52965;DHT22;42923;53.220;6.528;2023-02-28T16:40:17;5.90;99.90
52965;DHT22;42923;53.220;6.528;2023-02-28T16:42:44;5.90;99.90
52965;DHT22;42923;53.220;6.528;2023-02-28T16:45:20;5.90;99.90
52965;DHT22;42923;53.220;6.528;2023-02-28T16:47:46;5.80;99.90
52965;DHT22;42923;53.220;6.528;2023-02-28T16:50:26;5.80;99.90
52965;DHT22;42923;53.220;6.528;2023-02-28T16:52:52;5.80;99.90
52965;DHT22;42923;53.220;6.528;2023-02-28T16:55:20;5.70;99.90
52965;DHT22;42923;53.220;6.528;2023-02-28T16:57:57;5.70;99.90
52965;DHT22;42923;53.220;6.528;2023-02-28T17:00:24;5.60;99.90
52965;DHT22;42923;53.220;6.528;2023-02-28T17:02:50;5.50;99.90
52965;DHT22;42923;53.220;6.528;2023-02-28T17:05:16;5.40;99.90
52965;DHT22;42923;53.220;6.528;2023-02-28T17:07:44;5.30;99.90
52965;DHT22;42923;53.220;6.528;2023-02-28T17:12:43;5.10;99.90
52965;DHT22;42923;53.220;6.528;2023-02-28T17:15:11;5.10;99.90
52965;DHT22;42923;53.220;6.528;2023-02-28T17:17:37;4.80;99.90
52965;DHT22;42923;53.220;6.528;2023-02-28T17:20:04;4.70;99.90
52965;DHT22;42923;53.220;6.528;2023-02-28T17:22:31;4.50;99.90
52965;DHT22;42923;53.220;6.528;2023-02-28T17:24:57;4.40;99.90
52965;DHT22;42923;53.220;6.528;2023-02-28T17:27:24;4.50;99.90
52965;DHT22;42923;53.220;6.528;2023-02-28T17:29:50;4.10;99.90
52965;DHT22;42923;53.220;6.528;2023-02-28T17:32:16;4.00;99.90
52965;DHT22;42923;53.220;6.528;2023-02-28T17:34:43;3.90;99.90
52965;DHT22;42923;53.220;6.528;2023-02-28T17:37:10;3.80;99.90
52965;DHT22;42923;53.220;6.528;2023-02-28T17:39:35;3.70;99.90
52965;DHT22;42923;53.220;6.528;2023-02-28T17:42:01;3.60;99.90
52965;DHT22;42923;53.220;6.528;2023-02-28T17:44:27;3.50;99.90
52965;DHT22;42923;53.220;6.528;2023-02-28T17:46:54;3.40;99.90
52965;DHT22;42923;53.220;6.528;2023-02-28T17:49:20;3.30;99.90
52965;DHT22;42923;53.220;6.528;2023-02-28T17:51:46;3.20;99.90
52965;DHT22;42923;53.220;6.528;2023-02-28T17:54:12;3.20;99.90
52965;DHT22;42923;53.220;6.528;2023-02-28T17:56:40;3.20;99.90
52965;DHT22;42923;53.220;6.528;2023-02-28T17:59:08;3.30;99.90
52965;DHT22;42923;53.220;6.528;2023-02-28T18:01:34;3.40;99.90
52965;DHT22;42923;53.220;6.528;2023-02-28T18:04:00;3.60;99.90
52965;DHT22;42923;53.220;6.528;2023-02-28T18:06:33;3.50;99.90
52965;DHT22;42923;53.220;6.528;2023-02-28T18:09:00;3.60;99.90
52965;DHT22;42923;53.220;6.528;2023-02-28T18:11:26;3.60;99.90
52965;DHT22;42923;53.220;6.528;2023-02-28T18:14:06;3.70;99.90
52965;DHT22;42923;53.220;6.528;2023-02-28T18:16:32;3.70;99.90
52965;DHT22;42923;53.220;6.528;2023-02-28T18:18:59;3.70;99.90
52965;DHT22;42923;53.220;6.528;2023-02-28T18:21:27;3.70;99.90
52965;DHT22;42923;53.220;6.528;2023-02-28T18:23:53;3.60;99.90